createdAt,value
2023-01-09T00:01:41.746Z,5.15
2023-01-09T00:04:29.288Z,3.80
2023-01-09T00:07:17.947Z,4.20
2023-01-09T00:10:06.318Z,4.53
2023-01-09T00:12:55.061Z,4.90
2023-01-09T00:15:43.048Z,4.70
2023-01-09T00:18:30.576Z,4.85
2023-01-09T00:21:18.472Z,4.40
2023-01-09T00:24:06.524Z,4.85
2023-01-09T00:26:55.339Z,4.17
2023-01-09T00:29:44.701Z,4.20
2023-01-09T00:32:33.094Z,3.52
2023-01-09T00:35:20.533Z,3.98
2023-01-09T00:38:07.980Z,3.60
2023-01-09T00:40:57.439Z,3.45
2023-01-09T00:43:48.167Z,3.92
2023-01-09T00:46:38.993Z,4.30
2023-01-09T00:49:28.567Z,3.85
2023-01-09T00:52:16.637Z,4.42
2023-01-09T00:55:04.930Z,3.77
2023-01-09T00:57:53.761Z,4.03
2023-01-09T01:00:42.392Z,4.25
2023-01-09T01:03:29.777Z,4.65
2023-01-09T01:06:34.868Z,4.62
2023-01-09T01:09:24.840Z,4.92
2023-01-09T01:12:12.331Z,5.05
2023-01-09T01:14:59.900Z,5.08
2023-01-09T01:17:47.635Z,4.78
2023-01-09T01:20:36.008Z,5.22
2023-01-09T01:23:24.973Z,4.85
2023-01-09T01:26:15.046Z,4.92
2023-01-09T01:29:02.287Z,4.25
2023-01-09T01:31:49.681Z,3.98
2023-01-09T01:34:36.931Z,4.55
2023-01-09T01:37:27.668Z,3.77
2023-01-09T01:40:15.231Z,4.35
2023-01-09T01:43:02.918Z,4.25
2023-01-09T01:48:41.862Z,4.22
2023-01-09T01:51:31.969Z,3.98
2023-01-09T01:54:22.403Z,4.03
2023-01-09T01:57:10.357Z,3.47
2023-01-09T01:59:59.970Z,3.40
2023-01-09T02:02:47.517Z,2.80
2023-01-09T02:05:37.035Z,2.80
2023-01-09T02:08:24.664Z,2.37
2023-01-09T02:11:13.705Z,2.40
2023-01-09T02:14:02.865Z,2.12
2023-01-09T02:17:04.872Z,2.15
2023-01-09T02:19:58.346Z,2.20
2023-01-09T02:23:22.450Z,2.20
2023-01-09T02:26:43.405Z,1.95
2023-01-09T02:29:45.531Z,2.35
2023-01-09T02:32:47.453Z,2.00
2023-01-09T02:35:56.091Z,2.40
2023-01-09T02:39:06.849Z,2.62
2023-01-09T02:42:00.196Z,3.05
2023-01-09T02:44:47.083Z,3.42
2023-01-09T02:47:39.947Z,3.42
2023-01-09T02:50:33.221Z,3.80
2023-01-09T02:53:44.561Z,3.30
2023-01-09T02:56:40.922Z,3.62
2023-01-09T02:59:42.854Z,3.40
2023-01-09T03:02:36.358Z,3.42
2023-01-09T03:05:43.253Z,3.35
2023-01-09T03:08:33.865Z,3.58
2023-01-09T03:11:22.059Z,3.40
2023-01-09T03:14:15.258Z,3.58
2023-01-09T03:17:05.503Z,3.25
2023-01-09T03:19:55.472Z,3.90
2023-01-09T03:22:48.640Z,3.17
2023-01-09T03:25:36.073Z,2.47
2023-01-09T03:28:29.586Z,2.20
2023-01-09T03:31:17.341Z,2.20
2023-01-09T03:34:04.759Z,1.45
2023-01-09T03:36:52.169Z,1.80
2023-01-09T03:39:39.177Z,1.60
2023-01-09T03:42:26.208Z,1.62
2023-01-09T03:45:13.665Z,1.62
2023-01-09T03:48:00.737Z,1.60
2023-01-09T03:50:50.562Z,1.65
2023-01-09T03:53:37.796Z,1.37
2023-01-09T03:56:25.582Z,1.37
2023-01-09T03:59:13.661Z,1.40
2023-01-09T04:02:03.772Z,1.30
2023-01-09T04:04:49.960Z,1.20
2023-01-09T04:07:37.573Z,0.90
2023-01-09T04:10:25.184Z,0.82
2023-01-09T04:13:12.681Z,1.00
2023-01-09T04:16:00.087Z,0.65
2023-01-09T04:18:47.496Z,0.70
2023-01-09T04:21:35.145Z,0.65
2023-01-09T04:24:22.498Z,0.80
2023-01-09T04:27:09.726Z,0.50
2023-01-09T04:29:57.190Z,0.60
2023-01-09T04:32:44.652Z,0.53
2023-01-09T04:35:31.934Z,0.40
2023-01-09T04:38:20.048Z,0.50
2023-01-09T04:41:07.438Z,0.50
2023-01-09T04:43:54.605Z,0.45
2023-01-09T04:46:42.034Z,0.30
2023-01-09T04:49:29.540Z,0.40
2023-01-09T04:52:16.554Z,0.50
2023-01-09T04:55:05.064Z,0.50
2023-01-09T04:57:52.561Z,0.45
2023-01-09T05:00:39.835Z,0.30
2023-01-09T05:03:27.319Z,0.70
2023-01-09T05:06:14.767Z,0.30
2023-01-09T05:09:02.534Z,0.40
2023-01-09T05:11:50.616Z,0.57
2023-01-09T05:14:38.248Z,0.40
2023-01-09T05:17:25.763Z,0.50
2023-01-09T05:20:13.110Z,0.35
2023-01-09T05:23:00.217Z,0.53
2023-01-09T05:25:47.374Z,0.40
2023-01-09T05:28:34.882Z,0.40
2023-01-09T05:31:22.416Z,0.40
2023-01-09T05:34:09.623Z,0.40
2023-01-09T05:36:56.923Z,0.40
2023-01-09T05:39:44.118Z,0.50
2023-01-09T05:42:31.587Z,0.40
2023-01-09T05:45:19.170Z,0.40
2023-01-09T05:48:06.469Z,0.60
2023-01-09T05:50:53.589Z,0.50
2023-01-09T05:53:40.726Z,0.55
2023-01-09T05:56:29.952Z,0.57
2023-01-09T05:59:17.604Z,0.50
2023-01-09T06:02:04.771Z,0.60
2023-01-09T06:04:51.784Z,0.65
2023-01-09T06:07:40.736Z,0.80
2023-01-09T06:10:28.063Z,1.10
2023-01-09T06:13:15.834Z,0.68
2023-01-09T06:16:03.311Z,1.00
2023-01-09T06:18:50.533Z,1.10
2023-01-09T06:21:38.025Z,2.75
2023-01-09T06:24:26.276Z,2.02
2023-01-09T06:27:13.485Z,1.00
2023-01-09T06:30:00.772Z,0.88
2023-01-09T06:32:51.637Z,1.07
2023-01-09T06:35:38.877Z,1.40
2023-01-09T06:38:26.532Z,1.47
2023-01-09T06:41:14.086Z,1.32
2023-01-09T06:44:01.577Z,1.75
2023-01-09T06:46:49.071Z,1.47
2023-01-09T06:49:36.682Z,0.88
2023-01-09T06:52:23.768Z,1.22
2023-01-09T06:55:11.338Z,1.00
2023-01-09T06:57:58.707Z,0.80
2023-01-09T07:00:46.237Z,1.00
2023-01-09T07:03:33.955Z,0.80
2023-01-09T07:06:21.171Z,1.30
2023-01-09T07:09:10.263Z,1.20
2023-01-09T07:11:57.556Z,0.90
2023-01-09T07:14:45.136Z,1.00
2023-01-09T07:17:32.715Z,1.45
2023-01-09T07:20:20.672Z,1.80
2023-01-09T07:23:08.308Z,2.92
2023-01-09T07:25:55.764Z,1.00
2023-01-09T07:28:42.869Z,1.47
2023-01-09T07:31:30.151Z,1.10
2023-01-09T07:34:17.620Z,1.12
2023-01-09T07:37:04.797Z,1.30
2023-01-09T07:39:52.374Z,1.00
2023-01-09T07:42:39.815Z,0.93
2023-01-09T07:45:27.228Z,1.70
2023-01-09T07:48:14.477Z,2.02
2023-01-09T07:51:02.197Z,1.10
2023-01-09T07:53:49.604Z,1.07
2023-01-09T07:56:37.379Z,1.00
2023-01-09T07:59:25.035Z,0.88
2023-01-09T08:02:12.582Z,0.80
2023-01-09T08:05:00.030Z,1.00
2023-01-09T08:07:47.245Z,0.78
2023-01-09T08:10:34.635Z,0.80
2023-01-09T08:13:22.343Z,0.93
2023-01-09T08:16:10.048Z,0.65
2023-01-09T08:18:57.189Z,1.02
2023-01-09T08:21:44.390Z,0.70
2023-01-09T08:24:32.722Z,0.93
2023-01-09T08:27:20.135Z,0.90
2023-01-09T08:30:09.725Z,1.10
2023-01-09T08:32:56.825Z,0.50
2023-01-09T08:35:47.161Z,0.90
2023-01-09T08:38:34.345Z,1.10
2023-01-09T08:41:39.110Z,0.80
2023-01-09T08:44:44.516Z,1.10
2023-01-09T08:47:34.048Z,0.80
2023-01-09T08:50:21.362Z,5.37
2023-01-09T08:53:08.645Z,3.72
2023-01-09T08:55:56.121Z,1.10
2023-01-09T08:58:44.868Z,0.65
2023-01-09T09:01:32.583Z,0.65
2023-01-09T09:04:19.979Z,0.70
2023-01-09T09:07:07.703Z,1.05
2023-01-09T09:09:55.364Z,0.70
2023-01-09T09:12:42.558Z,0.70
2023-01-09T09:15:30.004Z,1.25
2023-01-09T09:18:17.450Z,0.72
2023-01-09T09:21:04.723Z,0.60
2023-01-09T09:23:52.115Z,0.90
2023-01-09T09:26:39.415Z,0.90
2023-01-09T09:29:26.656Z,1.00
2023-01-09T09:32:14.064Z,0.80
2023-01-09T09:35:01.303Z,0.62
2023-01-09T09:38:03.224Z,0.82
2023-01-09T09:41:07.750Z,0.70
2023-01-09T09:44:34.374Z,0.70
2023-01-09T09:47:42.109Z,1.00
2023-01-09T09:53:29.706Z,0.80
2023-01-09T09:56:20.249Z,0.98
2023-01-09T09:59:10.642Z,0.60
2023-01-09T10:02:12.850Z,0.60
2023-01-09T10:05:12.499Z,0.60
2023-01-09T10:08:15.348Z,0.60
2023-01-09T10:10:56.090Z,1.98
2023-01-09T10:14:01.902Z,0.75
2023-01-09T10:17:04.405Z,0.70
2023-01-09T10:19:57.917Z,1.10
2023-01-09T10:22:51.468Z,1.02
2023-01-09T10:25:47.160Z,0.60
2023-01-09T10:28:43.420Z,0.75
2023-01-09T10:31:52.622Z,0.90
2023-01-09T10:35:01.223Z,0.90
2023-01-09T10:37:52.367Z,0.70
2023-01-09T10:40:42.721Z,0.90
2023-01-09T10:43:34.950Z,0.50
2023-01-09T10:46:25.771Z,0.80
2023-01-09T10:49:16.272Z,1.00
2023-01-09T10:52:20.305Z,0.93
2023-01-09T10:55:36.776Z,0.68
2023-01-09T10:58:24.478Z,0.80
2023-01-09T11:01:12.195Z,1.00
2023-01-09T11:04:01.649Z,1.57
2023-01-09T11:07:07.250Z,1.27
2023-01-09T11:10:08.128Z,1.30
2023-01-09T11:12:58.450Z,1.00
2023-01-09T11:15:45.585Z,1.20
2023-01-09T11:18:34.096Z,1.00
2023-01-09T11:21:30.501Z,1.00
2023-01-09T11:24:25.377Z,0.75
2023-01-09T11:27:15.690Z,0.70
2023-01-09T11:30:09.255Z,1.05
2023-01-09T11:32:58.925Z,1.40
2023-01-09T11:36:04.302Z,1.00
2023-01-09T11:38:57.369Z,0.85
2023-01-09T11:41:44.953Z,0.80
2023-01-09T11:44:33.017Z,1.10
2023-01-09T11:47:28.767Z,1.15
2023-01-09T11:50:24.903Z,0.82
2023-01-09T11:53:21.723Z,1.05
2023-01-09T11:56:11.185Z,1.25
2023-01-09T11:59:01.053Z,0.98
2023-01-09T12:02:09.071Z,2.00
2023-01-09T12:05:16.016Z,1.10
2023-01-09T12:08:21.788Z,1.00
2023-01-09T12:11:21.269Z,1.50
2023-01-09T12:14:14.771Z,1.65
2023-01-09T12:17:13.546Z,1.30
2023-01-09T12:20:12.381Z,1.57
2023-01-09T12:23:05.482Z,1.00
2023-01-09T12:26:07.534Z,1.80
2023-01-09T12:29:26.723Z,1.27
2023-01-09T12:32:33.714Z,2.00
2023-01-09T12:35:36.066Z,0.90
2023-01-09T12:38:32.836Z,0.85
2023-01-09T12:41:42.907Z,1.45
2023-01-09T12:44:49.710Z,1.42
2023-01-09T12:47:45.466Z,3.72
2023-01-09T12:50:38.902Z,3.47
2023-01-09T12:53:29.523Z,3.40
2023-01-09T12:56:32.029Z,2.00
2023-01-09T12:59:26.862Z,2.47
2023-01-09T13:02:27.534Z,1.90
2023-01-09T13:05:21.035Z,3.27
2023-01-09T13:08:11.586Z,5.37
2023-01-09T13:11:20.942Z,1.62
2023-01-09T13:14:19.109Z,0.80
2023-01-09T13:17:09.506Z,1.35
2023-01-09T13:19:56.779Z,1.00
2023-01-09T13:22:46.363Z,1.70
2023-01-09T13:25:44.114Z,1.62
2023-01-09T13:28:46.917Z,1.10
2023-01-09T13:32:10.397Z,0.95
2023-01-09T13:34:58.462Z,0.95
2023-01-09T13:37:48.673Z,1.25
2023-01-09T13:40:35.913Z,1.20
2023-01-09T13:43:23.377Z,0.75
2023-01-09T13:46:10.828Z,0.53
2023-01-09T13:48:58.247Z,0.80
2023-01-09T13:51:48.713Z,0.88
2023-01-09T13:55:00.375Z,0.55
2023-01-09T13:58:10.583Z,0.65
2023-01-09T14:01:00.875Z,0.60
2023-01-09T14:03:51.236Z,0.50
2023-01-09T14:06:38.975Z,0.70
2023-01-09T14:09:27.677Z,0.82
2023-01-09T14:12:17.025Z,0.40
2023-01-09T14:15:04.268Z,0.78
2023-01-09T14:18:03.398Z,1.00
2023-01-09T14:24:05.305Z,0.50
2023-01-09T14:26:56.636Z,0.50
2023-01-09T14:29:45.500Z,0.33
2023-01-09T14:32:38.734Z,0.88
2023-01-09T14:35:31.796Z,0.40
2023-01-09T14:38:25.032Z,0.40
2023-01-09T14:41:29.655Z,0.40
2023-01-09T14:44:35.009Z,0.75
2023-01-09T14:47:37.024Z,0.50
2023-01-09T14:50:30.641Z,0.47
2023-01-09T14:53:21.310Z,1.15
2023-01-09T14:56:13.443Z,1.40
2023-01-09T14:59:05.798Z,0.50
2023-01-09T15:01:55.924Z,0.40
2023-01-09T15:04:43.362Z,0.62
2023-01-09T15:07:32.341Z,0.72
2023-01-09T15:10:22.675Z,0.70
2023-01-09T15:13:13.152Z,0.60
2023-01-09T15:16:01.349Z,0.47
2023-01-09T15:18:51.459Z,0.68
2023-01-09T15:21:38.974Z,0.65
2023-01-09T15:24:29.541Z,0.60
2023-01-09T15:27:19.118Z,1.10
2023-01-09T15:30:09.444Z,0.70
2023-01-09T15:32:58.011Z,0.90
2023-01-09T15:35:48.359Z,1.05
2023-01-09T15:38:36.245Z,0.93
2023-01-09T15:41:50.298Z,0.80
2023-01-09T15:44:41.197Z,1.57
2023-01-09T15:47:29.211Z,4.00
2023-01-09T15:50:17.863Z,1.47
2023-01-09T15:53:05.131Z,1.00
2023-01-09T15:56:16.830Z,1.22
2023-01-09T15:59:05.563Z,0.80
2023-01-09T16:02:00.644Z,1.05
2023-01-09T16:04:49.613Z,1.80
2023-01-09T16:07:36.668Z,1.70
2023-01-09T16:10:26.103Z,1.00
2023-01-09T16:13:16.557Z,0.75
2023-01-09T16:16:04.380Z,0.60
2023-01-09T16:18:53.629Z,3.05
2023-01-09T16:21:41.347Z,2.87
2023-01-09T16:24:42.754Z,1.62
2023-01-09T16:27:34.460Z,0.93
2023-01-09T16:30:25.082Z,1.25
2023-01-09T16:33:21.769Z,0.98
2023-01-09T16:36:10.546Z,0.80
2023-01-09T16:38:59.997Z,0.90
2023-01-09T16:42:05.375Z,0.98
2023-01-09T16:44:52.672Z,0.78
2023-01-09T16:47:39.833Z,0.80
2023-01-09T16:50:27.463Z,0.78
2023-01-09T16:53:21.793Z,0.70
2023-01-09T16:56:11.935Z,1.30
2023-01-09T16:59:00.426Z,0.90
2023-01-09T17:01:51.463Z,1.12
2023-01-09T17:04:38.673Z,0.60
2023-01-09T17:07:26.327Z,1.00
2023-01-09T17:10:22.631Z,1.40
2023-01-09T17:13:09.702Z,1.10
2023-01-09T17:15:59.630Z,1.70
2023-01-09T17:18:46.976Z,1.55
2023-01-09T17:21:34.352Z,1.62
2023-01-09T17:24:39.939Z,1.40
2023-01-09T17:27:52.146Z,1.90
2023-01-09T17:30:39.401Z,1.60
2023-01-09T17:33:27.237Z,1.50
2023-01-09T17:36:30.597Z,2.05
2023-01-09T17:39:18.966Z,2.02
2023-01-09T17:42:06.222Z,1.70
2023-01-09T17:44:55.609Z,1.52
2023-01-09T17:47:42.700Z,2.00
2023-01-09T17:50:31.883Z,1.85
2023-01-09T17:53:20.673Z,2.00
2023-01-09T17:56:09.692Z,1.72
2023-01-09T17:58:57.473Z,2.40
2023-01-09T18:01:45.513Z,1.52
2023-01-09T18:04:32.710Z,1.45
2023-01-09T18:07:20.545Z,1.62
2023-01-09T18:10:09.775Z,3.02
2023-01-09T18:12:57.257Z,1.60
2023-01-09T18:15:45.813Z,1.70
2023-01-09T18:18:33.671Z,1.87
2023-01-09T18:21:23.601Z,2.17
2023-01-09T18:24:10.664Z,1.85
2023-01-09T18:26:58.213Z,1.98
2023-01-09T18:29:45.621Z,1.52
2023-01-09T18:32:33.012Z,0.93
2023-01-09T18:35:20.286Z,1.00
2023-01-09T18:38:08.946Z,1.20
2023-01-09T18:41:01.501Z,1.20
2023-01-09T18:43:56.796Z,1.10
2023-01-09T18:46:44.338Z,0.93
2023-01-09T18:49:31.486Z,1.10
2023-01-09T18:52:18.676Z,0.95
2023-01-09T18:55:06.798Z,0.80
2023-01-09T18:57:56.246Z,2.15
2023-01-09T19:00:45.070Z,1.50
2023-01-09T19:03:32.545Z,1.10
2023-01-09T19:06:20.199Z,1.22
2023-01-09T19:09:07.704Z,1.40
2023-01-09T19:11:55.079Z,1.55
2023-01-09T19:14:42.175Z,1.55
2023-01-09T19:17:29.547Z,1.37
2023-01-09T19:20:17.294Z,1.98
2023-01-09T19:23:04.727Z,1.35
2023-01-09T19:25:53.381Z,1.30
2023-01-09T19:28:42.306Z,1.10
2023-01-09T19:31:30.378Z,1.50
2023-01-09T19:34:17.678Z,1.27
2023-01-09T19:37:06.575Z,1.00
2023-01-09T19:39:54.135Z,1.07
2023-01-09T19:42:41.333Z,1.37
2023-01-09T19:45:28.846Z,1.05
2023-01-09T19:48:16.794Z,1.20
2023-01-09T19:51:06.392Z,1.90
2023-01-09T19:53:57.275Z,1.50
2023-01-09T19:56:45.511Z,1.67
2023-01-09T19:59:35.101Z,1.55
2023-01-09T20:05:10.326Z,1.77
2023-01-09T20:07:57.884Z,1.92
2023-01-09T20:10:45.100Z,1.82
2023-01-09T20:13:32.312Z,1.67
2023-01-09T20:16:22.367Z,1.60
2023-01-09T20:19:11.841Z,1.50
2023-01-09T20:21:59.569Z,1.30
2023-01-09T20:24:46.753Z,1.40
2023-01-09T20:27:34.309Z,1.50
2023-01-09T20:30:21.729Z,1.17
2023-01-09T20:33:09.278Z,1.20
2023-01-09T20:35:57.990Z,1.30
2023-01-09T20:38:45.643Z,1.10
2023-01-09T20:41:33.288Z,1.42
2023-01-09T20:44:20.728Z,5.33
2023-01-09T20:47:07.959Z,3.60
2023-01-09T20:49:55.369Z,2.80
2023-01-09T20:52:43.039Z,1.55
2023-01-09T20:55:30.230Z,1.30
2023-01-09T20:58:17.677Z,1.55
2023-01-09T21:01:11.058Z,1.60
2023-01-09T21:03:58.969Z,2.10
2023-01-09T21:06:48.254Z,2.52
2023-01-09T21:09:35.487Z,2.45
2023-01-09T21:12:27.494Z,2.02
2023-01-09T21:15:16.769Z,1.87
2023-01-09T21:18:04.181Z,1.67
2023-01-09T21:20:51.662Z,2.47
2023-01-09T21:23:39.023Z,3.08
2023-01-09T21:26:29.074Z,2.35
2023-01-09T21:29:16.510Z,2.65
2023-01-09T21:32:03.995Z,2.05
2023-01-09T21:34:51.295Z,1.45
2023-01-09T21:37:38.965Z,1.30
2023-01-09T21:40:26.618Z,1.30
2023-01-09T21:43:34.747Z,1.55
2023-01-09T21:46:40.063Z,1.72
2023-01-09T21:49:32.974Z,2.00
2023-01-09T21:52:20.947Z,1.50
2023-01-09T21:55:10.055Z,4.65
2023-01-09T21:57:57.760Z,4.08
2023-01-09T22:00:45.137Z,3.22
2023-01-09T22:03:32.523Z,2.40
2023-01-09T22:06:19.819Z,1.82
2023-01-09T22:09:07.425Z,1.47
2023-01-09T22:11:54.855Z,1.85
2023-01-09T22:14:42.279Z,2.05
2023-01-09T22:17:30.162Z,1.90
2023-01-09T22:20:17.611Z,2.40
2023-01-09T22:23:04.752Z,2.25
2023-01-09T22:25:53.111Z,2.00
2023-01-09T22:28:41.104Z,2.72
2023-01-09T22:31:33.194Z,3.02
2023-01-09T22:34:20.637Z,2.62
2023-01-09T22:37:07.858Z,2.98
2023-01-09T22:39:55.193Z,2.90
2023-01-09T22:42:42.572Z,2.77
2023-01-09T22:45:31.026Z,2.50
2023-01-09T22:48:18.202Z,2.10
2023-01-09T22:51:08.422Z,2.20
2023-01-09T22:53:55.542Z,1.77
2023-01-09T22:56:42.925Z,1.90
2023-01-09T22:59:32.191Z,1.60
2023-01-09T23:02:20.270Z,1.62
2023-01-09T23:05:08.693Z,1.50
2023-01-09T23:07:58.813Z,1.70
2023-01-09T23:10:46.292Z,1.65
2023-01-09T23:13:33.980Z,1.82
2023-01-09T23:16:21.449Z,1.70
2023-01-09T23:19:14.779Z,1.70
2023-01-09T23:22:03.896Z,1.95
2023-01-09T23:24:51.571Z,2.00
2023-01-09T23:27:39.011Z,1.45
2023-01-09T23:30:26.509Z,1.87
2023-01-09T23:33:14.439Z,1.45
2023-01-09T23:36:01.459Z,1.57
2023-01-09T23:38:49.391Z,1.85
2023-01-09T23:41:55.715Z,1.70
2023-01-09T23:44:43.235Z,1.73
2023-01-09T23:47:30.761Z,1.92
2023-01-09T23:50:18.292Z,1.40
2023-01-09T23:53:06.114Z,1.45
2023-01-09T23:55:55.225Z,1.50
2023-01-09T23:58:42.641Z,1.70
